sensor_id;sensor_type;location;lat;lon;timestamp;pressure;altitude;pressure_sealevel;temperature;humidity
46756;BME280;32506;52.826;-1.192;2022-10-23T00:01:37;100289.53;;;15.09;67.40
46756;BME280;32506;52.826;-1.192;2022-10-23T00:06:31;100274.72;;;15.07;67.32
46756;BME280;32506;52.826;-1.192;2022-10-23T00:08:57;100262.31;;;15.06;67.05
46756;BME280;32506;52.826;-1.192;2022-10-23T00:11:25;100270.63;;;15.04;67.45
46756;BME280;32506;52.826;-1.192;2022-10-23T00:13:55;100269.59;;;15.05;67.39
46756;BME280;32506;52.826;-1.192;2022-10-23T00:16:20;100253.66;;;15.04;67.52
46756;BME280;32506;52.826;-1.192;2022-10-23T00:18:46;100255.53;;;15.03;67.25
46756;BME280;32506;52.826;-1.192;2022-10-23T00:21:13;100251.22;;;15.02;67.55
46756;BME280;32506;52.826;-1.192;2022-10-23T00:23:39;100246.66;;;15.03;67.89
46756;BME280;32506;52.826;-1.192;2022-10-23T00:26:06;100245.03;;;15.02;67.81
46756;BME280;32506;52.826;-1.192;2022-10-23T00:28:33;100238.81;;;15.01;68.04
46756;BME280;32506;52.826;-1.192;2022-10-23T00:31:01;100240.72;;;15.01;68.09
46756;BME280;32506;52.826;-1.192;2022-10-23T00:33:27;100233.44;;;15.01;68.17
46756;BME280;32506;52.826;-1.192;2022-10-23T00:35:53;100226.47;;;15.00;67.98
46756;BME280;32506;52.826;-1.192;2022-10-23T00:38:18;100228.06;;;15.01;68.28
46756;BME280;32506;52.826;-1.192;2022-10-23T00:40:44;100223.75;;;15.00;68.35
46756;BME280;32506;52.826;-1.192;2022-10-23T00:43:23;100221.06;;;15.00;68.39
46756;BME280;32506;52.826;-1.192;2022-10-23T00:45:48;100222.13;;;14.99;68.17
46756;BME280;32506;52.826;-1.192;2022-10-23T00:48:14;100221.31;;;14.99;68.30
46756;BME280;32506;52.826;-1.192;2022-10-23T00:50:41;100205.19;;;14.99;68.39
46756;BME280;32506;52.826;-1.192;2022-10-23T00:53:07;100214.31;;;14.98;68.55
46756;BME280;32506;52.826;-1.192;2022-10-23T00:55:34;100215.13;;;14.98;68.50
46756;BME280;32506;52.826;-1.192;2022-10-23T00:58:03;100208.94;;;14.98;68.42
46756;BME280;32506;52.826;-1.192;2022-10-23T01:00:50;100202.50;;;14.99;68.41
46756;BME280;32506;52.826;-1.192;2022-10-23T01:03:17;100203.81;;;14.96;68.48
46756;BME280;32506;52.826;-1.192;2022-10-23T01:06:03;100209.72;;;14.98;68.40
46756;BME280;32506;52.826;-1.192;2022-10-23T01:08:43;100193.03;;;14.96;68.70
46756;BME280;32506;52.826;-1.192;2022-10-23T01:11:23;100202.97;;;14.96;68.71
46756;BME280;32506;52.826;-1.192;2022-10-23T01:16:42;100196.78;;;14.95;68.41
46756;BME280;32506;52.826;-1.192;2022-10-23T01:24:57;100187.59;;;14.91;68.61
46756;BME280;32506;52.826;-1.192;2022-10-23T01:27:26;100176.00;;;14.90;68.44
46756;BME280;32506;52.826;-1.192;2022-10-23T01:30:03;100167.38;;;14.88;68.29
46756;BME280;32506;52.826;-1.192;2022-10-23T01:32:36;100169.25;;;14.88;68.26
46756;BME280;32506;52.826;-1.192;2022-10-23T01:35:08;100168.44;;;14.87;67.86
46756;BME280;32506;52.826;-1.192;2022-10-23T01:37:42;100174.88;;;14.86;68.14
46756;BME280;32506;52.826;-1.192;2022-10-23T01:40:14;100168.94;;;14.84;68.23
46756;BME280;32506;52.826;-1.192;2022-10-23T01:42:47;100162.75;;;14.84;68.28
46756;BME280;32506;52.826;-1.192;2022-10-23T01:45:22;100166.25;;;14.84;68.21
46756;BME280;32506;52.826;-1.192;2022-10-23T01:47:51;100165.69;;;14.82;68.15
46756;BME280;32506;52.826;-1.192;2022-10-23T01:50:18;100154.13;;;14.82;68.40
46756;BME280;32506;52.826;-1.192;2022-10-23T01:52:45;100150.63;;;14.81;68.12
46756;BME280;32506;52.826;-1.192;2022-10-23T01:55:12;100152.50;;;14.81;67.92
46756;BME280;32506;52.826;-1.192;2022-10-23T01:57:39;100146.31;;;14.80;67.60
46756;BME280;32506;52.826;-1.192;2022-10-23T02:00:12;100141.72;;;14.81;67.94
46756;BME280;32506;52.826;-1.192;2022-10-23T02:02:38;100140.69;;;14.82;68.06
46756;BME280;32506;52.826;-1.192;2022-10-23T02:05:13;100148.69;;;14.76;67.98
46756;BME280;32506;52.826;-1.192;2022-10-23T02:07:40;100142.25;;;14.77;68.07
46756;BME280;32506;52.826;-1.192;2022-10-23T02:10:07;100146.00;;;14.76;67.86
46756;BME280;32506;52.826;-1.192;2022-10-23T02:15:27;100138.19;;;14.75;67.85
46756;BME280;32506;52.826;-1.192;2022-10-23T02:20:54;100117.72;;;14.74;68.06
46756;BME280;32506;52.826;-1.192;2022-10-23T02:23:33;100118.78;;;14.73;67.88
46756;BME280;32506;52.826;-1.192;2022-10-23T02:26:13;100112.59;;;14.72;67.90
46756;BME280;32506;52.826;-1.192;2022-10-23T02:28:47;100107.47;;;14.71;67.65
46756;BME280;32506;52.826;-1.192;2022-10-23T02:31:16;100115.53;;;14.71;67.55
46756;BME280;32506;52.826;-1.192;2022-10-23T02:33:44;100115.78;;;14.69;67.23
46756;BME280;32506;52.826;-1.192;2022-10-23T02:36:11;100097.22;;;14.68;67.30
46756;BME280;32506;52.826;-1.192;2022-10-23T02:38:40;100094.75;;;14.66;67.34
46756;BME280;32506;52.826;-1.192;2022-10-23T02:41:28;100095.59;;;14.67;67.00
46756;BME280;32506;52.826;-1.192;2022-10-23T02:49:41;100072.09;;;14.62;66.54
46756;BME280;32506;52.826;-1.192;2022-10-23T02:52:15;100068.28;;;14.58;66.47
46756;BME280;32506;52.826;-1.192;2022-10-23T02:55:12;100068.03;;;14.59;66.33
46756;BME280;32506;52.826;-1.192;2022-10-23T03:00:30;100069.06;;;14.53;65.88
46756;BME280;32506;52.826;-1.192;2022-10-23T03:03:02;100070.13;;;14.52;65.75
46756;BME280;32506;52.826;-1.192;2022-10-23T03:05:34;100060.41;;;14.51;65.54
46756;BME280;32506;52.826;-1.192;2022-10-23T03:08:02;100066.03;;;14.50;65.64
46756;BME280;32506;52.826;-1.192;2022-10-23T03:10:29;100060.94;;;14.48;65.55
46756;BME280;32506;52.826;-1.192;2022-10-23T03:12:54;100047.47;;;14.48;65.41
46756;BME280;32506;52.826;-1.192;2022-10-23T03:15:20;100037.25;;;14.45;65.12
46756;BME280;32506;52.826;-1.192;2022-10-23T03:17:45;100035.59;;;14.44;65.31
46756;BME280;32506;52.826;-1.192;2022-10-23T03:20:11;100030.50;;;14.42;65.04
46756;BME280;32506;52.826;-1.192;2022-10-23T03:22:37;100028.84;;;14.41;64.94
46756;BME280;32506;52.826;-1.192;2022-10-23T03:25:03;100020.22;;;14.39;64.64
46756;BME280;32506;52.826;-1.192;2022-10-23T03:27:29;100016.19;;;14.37;64.65
46756;BME280;32506;52.826;-1.192;2022-10-23T03:29:54;100014.56;;;14.36;64.42
46756;BME280;32506;52.826;-1.192;2022-10-23T03:32:19;100011.28;;;14.34;64.32
46756;BME280;32506;52.826;-1.192;2022-10-23T03:34:45;100010.75;;;14.32;64.51
46756;BME280;32506;52.826;-1.192;2022-10-23T03:37:11;99999.41;;;14.30;64.50
46756;BME280;32506;52.826;-1.192;2022-10-23T03:39:36;99997.00;;;14.28;64.25
46756;BME280;32506;52.826;-1.192;2022-10-23T03:42:02;99992.94;;;14.25;64.24
46756;BME280;32506;52.826;-1.192;2022-10-23T03:44:27;99996.66;;;14.24;64.12
46756;BME280;32506;52.826;-1.192;2022-10-23T03:46:55;99984.31;;;14.23;64.14
46756;BME280;32506;52.826;-1.192;2022-10-23T03:49:21;99992.59;;;14.22;64.13
46756;BME280;32506;52.826;-1.192;2022-10-23T03:51:46;99993.91;;;14.19;63.84
46756;BME280;32506;52.826;-1.192;2022-10-23T03:54:26;99981.56;;;14.18;63.92
46756;BME280;32506;52.826;-1.192;2022-10-23T03:56:54;99974.81;;;14.16;63.99
46756;BME280;32506;52.826;-1.192;2022-10-23T03:59:20;99963.22;;;14.15;63.80
46756;BME280;32506;52.826;-1.192;2022-10-23T04:01:45;99964.31;;;14.14;64.21
46756;BME280;32506;52.826;-1.192;2022-10-23T04:04:11;99962.13;;;14.11;64.03
46756;BME280;32506;52.826;-1.192;2022-10-23T04:06:37;99948.69;;;14.11;64.10
46756;BME280;32506;52.826;-1.192;2022-10-23T04:09:03;99949.78;;;14.10;63.89
46756;BME280;32506;52.826;-1.192;2022-10-23T04:11:29;99932.28;;;14.07;63.88
46756;BME280;32506;52.826;-1.192;2022-10-23T04:13:55;99928.75;;;14.07;63.83
46756;BME280;32506;52.826;-1.192;2022-10-23T04:16:20;99920.94;;;14.05;64.03
46756;BME280;32506;52.826;-1.192;2022-10-23T04:18:46;99914.78;;;14.05;63.97
46756;BME280;32506;52.826;-1.192;2022-10-23T04:21:11;99915.84;;;14.04;63.95
46756;BME280;32506;52.826;-1.192;2022-10-23T04:23:37;99887.59;;;14.01;63.98
46756;BME280;32506;52.826;-1.192;2022-10-23T04:26:02;99892.16;;;14.01;63.83
46756;BME280;32506;52.826;-1.192;2022-10-23T04:28:28;99880.84;;;13.99;63.65
46756;BME280;32506;52.826;-1.192;2022-10-23T04:30:53;99871.16;;;13.98;64.14
46756;BME280;32506;52.826;-1.192;2022-10-23T04:33:20;99863.34;;;13.96;63.99
46756;BME280;32506;52.826;-1.192;2022-10-23T04:35:45;99855.31;;;13.96;63.65
46756;BME280;32506;52.826;-1.192;2022-10-23T04:38:11;99853.94;;;13.93;64.01
46756;BME280;32506;52.826;-1.192;2022-10-23T04:40:36;99852.28;;;13.92;64.00
46756;BME280;32506;52.826;-1.192;2022-10-23T04:43:03;99824.63;;;13.92;63.94
46756;BME280;32506;52.826;-1.192;2022-10-23T04:45:28;99827.59;;;13.90;63.97
46756;BME280;32506;52.826;-1.192;2022-10-23T04:47:54;99829.47;;;13.90;64.05
46756;BME280;32506;52.826;-1.192;2022-10-23T04:50:21;99840.22;;;13.90;64.39
46756;BME280;32506;52.826;-1.192;2022-10-23T04:52:47;99832.38;;;13.88;64.07
46756;BME280;32506;52.826;-1.192;2022-10-23T04:55:12;99832.63;;;13.87;64.09
46756;BME280;32506;52.826;-1.192;2022-10-23T04:57:38;99837.22;;;13.86;64.00
46756;BME280;32506;52.826;-1.192;2022-10-23T05:00:05;99842.00;;;13.84;64.03
46756;BME280;32506;52.826;-1.192;2022-10-23T05:02:31;99837.72;;;13.83;64.09
46756;BME280;32506;52.826;-1.192;2022-10-23T05:04:57;99835.84;;;13.84;63.98
46756;BME280;32506;52.826;-1.192;2022-10-23T05:07:22;99844.16;;;13.82;64.28
46756;BME280;32506;52.826;-1.192;2022-10-23T05:09:47;99830.16;;;13.80;64.33
46756;BME280;32506;52.826;-1.192;2022-10-23T05:12:13;99825.03;;;13.79;64.05
46756;BME280;32506;52.826;-1.192;2022-10-23T05:14:39;99836.59;;;13.79;64.20
46756;BME280;32506;52.826;-1.192;2022-10-23T05:17:26;99835.25;;;13.82;64.36
46756;BME280;32506;52.826;-1.192;2022-10-23T05:19:55;99824.50;;;13.76;64.19
46756;BME280;32506;52.826;-1.192;2022-10-23T05:22:24;99826.91;;;13.78;64.36
46756;BME280;32506;52.826;-1.192;2022-10-23T05:24:51;99822.88;;;13.75;64.04
46756;BME280;32506;52.826;-1.192;2022-10-23T05:27:16;99818.56;;;13.74;64.18
46756;BME280;32506;52.826;-1.192;2022-10-23T05:29:42;99827.66;;;13.73;64.18
46756;BME280;32506;52.826;-1.192;2022-10-23T05:32:09;99819.88;;;13.72;63.96
46756;BME280;32506;52.826;-1.192;2022-10-23T05:34:38;99824.97;;;13.73;63.73
46756;BME280;32506;52.826;-1.192;2022-10-23T05:37:06;99826.28;;;13.71;63.71
46756;BME280;32506;52.826;-1.192;2022-10-23T05:39:32;99817.44;;;13.70;63.88
46756;BME280;32506;52.826;-1.192;2022-10-23T05:41:58;99817.69;;;13.69;63.79
46756;BME280;32506;52.826;-1.192;2022-10-23T05:44:24;99817.69;;;13.69;63.77
46756;BME280;32506;52.826;-1.192;2022-10-23T05:46:49;99816.06;;;13.68;63.74
46756;BME280;32506;52.826;-1.192;2022-10-23T05:49:15;99823.56;;;13.66;64.15
46756;BME280;32506;52.826;-1.192;2022-10-23T05:51:40;99821.69;;;13.66;64.20
46756;BME280;32506;52.826;-1.192;2022-10-23T05:54:06;99815.53;;;13.66;63.88
46756;BME280;32506;52.826;-1.192;2022-10-23T05:56:37;99812.00;;;13.65;63.96
46756;BME280;32506;52.826;-1.192;2022-10-23T05:59:03;99812.84;;;13.66;63.85
46756;BME280;32506;52.826;-1.192;2022-10-23T06:01:29;99797.78;;;13.65;63.92
46756;BME280;32506;52.826;-1.192;2022-10-23T06:03:55;99781.94;;;13.63;64.03
46756;BME280;32506;52.826;-1.192;2022-10-23T06:06:20;99778.41;;;13.63;64.02
46756;BME280;32506;52.826;-1.192;2022-10-23T06:08:46;99780.28;;;13.62;64.12
46756;BME280;32506;52.826;-1.192;2022-10-23T06:11:13;99788.34;;;13.62;64.10
46756;BME280;32506;52.826;-1.192;2022-10-23T06:13:41;99781.34;;;13.61;64.15
46756;BME280;32506;52.826;-1.192;2022-10-23T06:16:22;99789.16;;;13.63;64.06
46756;BME280;32506;52.826;-1.192;2022-10-23T06:18:49;99795.56;;;13.62;64.13
46756;BME280;32506;52.826;-1.192;2022-10-23T06:21:16;99804.72;;;13.61;64.31
46756;BME280;32506;52.826;-1.192;2022-10-23T06:23:42;99833.41;;;13.60;64.36
46756;BME280;32506;52.826;-1.192;2022-10-23T06:26:10;99850.34;;;13.61;64.47
46756;BME280;32506;52.826;-1.192;2022-10-23T06:28:36;99878.00;;;13.61;64.43
46756;BME280;32506;52.826;-1.192;2022-10-23T06:31:06;99881.75;;;13.60;64.67
46756;BME280;32506;52.826;-1.192;2022-10-23T06:33:33;99875.56;;;13.59;64.60
46756;BME280;32506;52.826;-1.192;2022-10-23T06:35:58;99887.13;;;13.60;64.72
46756;BME280;32506;52.826;-1.192;2022-10-23T06:38:24;99869.16;;;13.61;64.65
46756;BME280;32506;52.826;-1.192;2022-10-23T06:40:53;99860.28;;;13.60;65.07
46756;BME280;32506;52.826;-1.192;2022-10-23T06:43:19;99857.59;;;13.60;64.70
46756;BME280;32506;52.826;-1.192;2022-10-23T06:45:45;99865.63;;;13.60;64.40
46756;BME280;32506;52.826;-1.192;2022-10-23T06:48:10;99849.53;;;13.60;64.34
46756;BME280;32506;52.826;-1.192;2022-10-23T06:50:37;99862.16;;;13.59;64.29
46756;BME280;32506;52.826;-1.192;2022-10-23T06:53:03;99857.59;;;13.60;64.41
46756;BME280;32506;52.826;-1.192;2022-10-23T06:55:30;99841.47;;;13.60;64.28
46756;BME280;32506;52.826;-1.192;2022-10-23T06:57:56;99838.00;;;13.59;64.15
46756;BME280;32506;52.826;-1.192;2022-10-23T07:00:21;99819.19;;;13.59;64.40
46756;BME280;32506;52.826;-1.192;2022-10-23T07:02:47;99813.81;;;13.59;64.30
46756;BME280;32506;52.826;-1.192;2022-10-23T07:05:12;99807.66;;;13.59;64.31
46756;BME280;32506;52.826;-1.192;2022-10-23T07:07:38;99793.41;;;13.58;64.42
46756;BME280;32506;52.826;-1.192;2022-10-23T07:10:04;99771.94;;;13.58;64.50
46756;BME280;32506;52.826;-1.192;2022-10-23T07:12:29;99770.06;;;13.59;64.22
46756;BME280;32506;52.826;-1.192;2022-10-23T07:14:55;99753.97;;;13.59;64.14
46756;BME280;32506;52.826;-1.192;2022-10-23T07:17:21;99734.34;;;13.58;64.55
46756;BME280;32506;52.826;-1.192;2022-10-23T07:19:46;99724.44;;;13.59;64.40
46756;BME280;32506;52.826;-1.192;2022-10-23T07:22:12;99715.56;;;13.58;64.43
46756;BME280;32506;52.826;-1.192;2022-10-23T07:24:37;99720.91;;;13.58;64.63
46756;BME280;32506;52.826;-1.192;2022-10-23T07:27:04;99733.28;;;13.59;64.46
46756;BME280;32506;52.826;-1.192;2022-10-23T07:29:31;99737.03;;;13.58;64.55
46756;BME280;32506;52.826;-1.192;2022-10-23T07:31:57;99728.72;;;13.60;64.67
46756;BME280;32506;52.826;-1.192;2022-10-23T07:34:25;99727.91;;;13.59;64.49
46756;BME280;32506;52.826;-1.192;2022-10-23T07:36:51;99721.50;;;13.61;64.39
46756;BME280;32506;52.826;-1.192;2022-10-23T07:39:16;99726.03;;;13.60;64.44
46756;BME280;32506;52.826;-1.192;2022-10-23T07:41:42;99715.28;;;13.60;64.65
46756;BME280;32506;52.826;-1.192;2022-10-23T07:44:07;99716.91;;;13.61;64.57
46756;BME280;32506;52.826;-1.192;2022-10-23T07:46:32;99708.06;;;13.61;64.39
46756;BME280;32506;52.826;-1.192;2022-10-23T07:48:58;99709.66;;;13.62;64.40
46756;BME280;32506;52.826;-1.192;2022-10-23T07:51:23;99706.19;;;13.61;64.47
46756;BME280;32506;52.826;-1.192;2022-10-23T07:53:49;99708.88;;;13.61;64.35
46756;BME280;32506;52.826;-1.192;2022-10-23T07:56:22;99717.72;;;13.62;64.55
46756;BME280;32506;52.826;-1.192;2022-10-23T07:58:49;99725.78;;;13.62;64.52
46756;BME280;32506;52.826;-1.192;2022-10-23T08:01:19;99725.78;;;13.62;64.34
46756;BME280;32506;52.826;-1.192;2022-10-23T08:03:48;99726.59;;;13.62;64.59
46756;BME280;32506;52.826;-1.192;2022-10-23T08:06:13;99720.19;;;13.63;64.49
46756;BME280;32506;52.826;-1.192;2022-10-23T08:08:39;99740.56;;;13.64;64.44
46756;BME280;32506;52.826;-1.192;2022-10-23T08:11:04;99722.84;;;13.63;64.42
46756;BME280;32506;52.826;-1.192;2022-10-23T08:13:30;99719.09;;;13.64;64.58
46756;BME280;32506;52.826;-1.192;2022-10-23T08:15:55;99722.59;;;13.65;64.53
46756;BME280;32506;52.826;-1.192;2022-10-23T08:18:23;99721.53;;;13.66;64.50
46756;BME280;32506;52.826;-1.192;2022-10-23T08:20:48;99748.41;;;13.66;64.73
46756;BME280;32506;52.826;-1.192;2022-10-23T08:23:17;99731.19;;;13.67;64.50
46756;BME280;32506;52.826;-1.192;2022-10-23T08:25:43;99709.72;;;13.67;64.77
46756;BME280;32506;52.826;-1.192;2022-10-23T08:28:09;99703.28;;;13.68;64.45
46756;BME280;32506;52.826;-1.192;2022-10-23T08:30:36;99695.22;;;13.68;64.72
46756;BME280;32506;52.826;-1.192;2022-10-23T08:33:03;99674.00;;;13.66;64.31
46756;BME280;32506;52.826;-1.192;2022-10-23T08:35:28;99663.81;;;13.68;65.01
46756;BME280;32506;52.826;-1.192;2022-10-23T08:37:54;99666.50;;;13.68;64.72
46756;BME280;32506;52.826;-1.192;2022-10-23T08:40:24;99668.13;;;13.69;64.57
46756;BME280;32506;52.826;-1.192;2022-10-23T08:43:01;99656.31;;;13.70;64.75
46756;BME280;32506;52.826;-1.192;2022-10-23T08:48:22;99644.78;;;13.70;64.93
46756;BME280;32506;52.826;-1.192;2022-10-23T08:51:12;99643.47;;;13.72;65.09
46756;BME280;32506;52.826;-1.192;2022-10-23T08:53:48;99644.25;;;13.73;64.97
46756;BME280;32506;52.826;-1.192;2022-10-23T08:56:48;99630.56;;;13.74;65.09
46756;BME280;32506;52.826;-1.192;2022-10-23T08:59:34;99638.91;;;13.73;64.93
46756;BME280;32506;52.826;-1.192;2022-10-23T09:04:32;99639.44;;;13.75;64.74
46756;BME280;32506;52.826;-1.192;2022-10-23T09:07:17;99629.25;;;13.77;64.69
46756;BME280;32506;52.826;-1.192;2022-10-23T09:12:35;99613.94;;;13.77;65.18
46756;BME280;32506;52.826;-1.192;2022-10-23T09:17:44;99607.50;;;13.79;65.29
46756;BME280;32506;52.826;-1.192;2022-10-23T09:22:41;99608.63;;;13.83;65.34
46756;BME280;32506;52.826;-1.192;2022-10-23T09:25:19;99598.94;;;13.82;64.98
46756;BME280;32506;52.826;-1.192;2022-10-23T09:27:50;99596.81;;;13.84;65.48
46756;BME280;32506;52.826;-1.192;2022-10-23T09:30:30;99580.44;;;13.85;65.87
46756;BME280;32506;52.826;-1.192;2022-10-23T09:32:58;99562.47;;;13.86;65.44
46756;BME280;32506;52.826;-1.192;2022-10-23T09:35:27;99558.69;;;13.87;65.61
46756;BME280;32506;52.826;-1.192;2022-10-23T09:37:53;99538.03;;;13.87;65.53
46756;BME280;32506;52.826;-1.192;2022-10-23T09:40:40;99536.69;;;13.90;65.38
46756;BME280;32506;52.826;-1.192;2022-10-23T09:43:16;99526.75;;;13.90;65.41
46756;BME280;32506;52.826;-1.192;2022-10-23T09:45:42;99521.38;;;13.90;65.39
46756;BME280;32506;52.826;-1.192;2022-10-23T09:48:12;99514.69;;;13.93;65.47
46756;BME280;32506;52.826;-1.192;2022-10-23T09:51:20;99504.22;;;13.97;65.50
46756;BME280;32506;52.826;-1.192;2022-10-23T09:59:03;99499.38;;;13.99;65.74
46756;BME280;32506;52.826;-1.192;2022-10-23T10:01:35;99509.88;;;14.00;65.44
46756;BME280;32506;52.826;-1.192;2022-10-23T10:04:09;99498.84;;;14.02;65.82
46756;BME280;32506;52.826;-1.192;2022-10-23T10:06:34;99493.25;;;14.03;65.66
46756;BME280;32506;52.826;-1.192;2022-10-23T10:09:15;99485.72;;;14.05;65.97
46756;BME280;32506;52.826;-1.192;2022-10-23T10:22:04;99533.56;;;14.14;66.13
46756;BME280;32506;52.826;-1.192;2022-10-23T10:27:09;99528.50;;;14.17;66.34
46756;BME280;32506;52.826;-1.192;2022-10-23T10:30:12;99524.47;;;14.20;66.69
46756;BME280;32506;52.826;-1.192;2022-10-23T10:35:40;99490.91;;;14.22;66.91
46756;BME280;32506;52.826;-1.192;2022-10-23T10:40:46;99471.81;;;14.24;66.94
46756;BME280;32506;52.826;-1.192;2022-10-23T10:49:18;99473.69;;;14.29;67.30
46756;BME280;32506;52.826;-1.192;2022-10-23T10:52:05;99471.31;;;14.32;67.36
46756;BME280;32506;52.826;-1.192;2022-10-23T10:54:44;99465.94;;;14.32;67.56
46756;BME280;32506;52.826;-1.192;2022-10-23T10:57:32;99458.94;;;14.36;67.48
46756;BME280;32506;52.826;-1.192;2022-10-23T11:00:05;99451.72;;;14.37;67.43
46756;BME280;32506;52.826;-1.192;2022-10-23T11:02:41;99456.56;;;14.40;67.53
46756;BME280;32506;52.826;-1.192;2022-10-23T11:05:53;99444.47;;;14.42;67.70
46756;BME280;32506;52.826;-1.192;2022-10-23T11:08:32;99432.38;;;14.45;67.82
46756;BME280;32506;52.826;-1.192;2022-10-23T11:11:05;99416.75;;;14.47;67.84
46756;BME280;32506;52.826;-1.192;2022-10-23T11:13:37;99409.25;;;14.49;68.04
46756;BME280;32506;52.826;-1.192;2022-10-23T11:18:35;99390.44;;;14.54;68.08
46756;BME280;32506;52.826;-1.192;2022-10-23T11:21:29;99384.53;;;14.57;68.32
46756;BME280;32506;52.826;-1.192;2022-10-23T11:33:03;99354.72;;;14.69;68.27
46756;BME280;32506;52.826;-1.192;2022-10-23T11:38:25;99335.06;;;14.79;68.43
46756;BME280;32506;52.826;-1.192;2022-10-23T11:40:55;99324.81;;;14.86;68.85
46756;BME280;32506;52.826;-1.192;2022-10-23T11:43:30;99327.78;;;14.95;69.13
46756;BME280;32506;52.826;-1.192;2022-10-23T11:45:57;99330.69;;;15.04;69.62
46756;BME280;32506;52.826;-1.192;2022-10-23T11:48:39;99337.97;;;15.14;70.20
46756;BME280;32506;52.826;-1.192;2022-10-23T11:51:05;99335.78;;;15.21;70.30
46756;BME280;32506;52.826;-1.192;2022-10-23T11:53:50;99334.41;;;15.29;70.64
46756;BME280;32506;52.826;-1.192;2022-10-23T12:01:21;99322.19;;;15.52;70.91
46756;BME280;32506;52.826;-1.192;2022-10-23T12:07:01;99311.31;;;15.72;71.04
46756;BME280;32506;52.826;-1.192;2022-10-23T12:09:39;99303.22;;;15.83;70.92
46756;BME280;32506;52.826;-1.192;2022-10-23T12:20:00;99300.00;;;16.55;72.54
46756;BME280;32506;52.826;-1.192;2022-10-23T12:22:35;99300.50;;;16.86;73.08
46756;BME280;32506;52.826;-1.192;2022-10-23T12:28:03;99297.41;;;17.47;72.59
46756;BME280;32506;52.826;-1.192;2022-10-23T12:33:41;99283.94;;;18.04;72.03
46756;BME280;32506;52.826;-1.192;2022-10-23T12:38:44;99277.91;;;18.73;70.67
46756;BME280;32506;52.826;-1.192;2022-10-23T12:41:25;99263.91;;;19.26;69.80
46756;BME280;32506;52.826;-1.192;2022-10-23T12:44:02;99265.69;;;19.95;68.49
46756;BME280;32506;52.826;-1.192;2022-10-23T12:48:58;99266.13;;;21.81;64.01
46756;BME280;32506;52.826;-1.192;2022-10-23T12:51:30;99259.38;;;22.78;61.37
46756;BME280;32506;52.826;-1.192;2022-10-23T12:53:56;99260.09;;;23.77;58.51
46756;BME280;32506;52.826;-1.192;2022-10-23T12:56:26;99242.72;;;24.61;56.85
46756;BME280;32506;52.826;-1.192;2022-10-23T12:58:54;99238.09;;;25.36;55.06
46756;BME280;32506;52.826;-1.192;2022-10-23T13:01:29;99238.94;;;25.93;53.28
46756;BME280;32506;52.826;-1.192;2022-10-23T13:03:58;99228.00;;;26.38;53.21
46756;BME280;32506;52.826;-1.192;2022-10-23T13:06:26;99231.38;;;26.79;51.98
46756;BME280;32506;52.826;-1.192;2022-10-23T13:08:52;99229.69;;;27.06;51.52
46756;BME280;32506;52.826;-1.192;2022-10-23T13:11:19;99223.84;;;27.63;50.36
46756;BME280;32506;52.826;-1.192;2022-10-23T13:13:46;99203.78;;;28.21;48.16
46756;BME280;32506;52.826;-1.192;2022-10-23T13:16:18;99212.47;;;28.46;48.13
46756;BME280;32506;52.826;-1.192;2022-10-23T13:18:43;99210.41;;;28.40;48.42
46756;BME280;32506;52.826;-1.192;2022-10-23T13:21:22;99204.78;;;27.90;48.86
46756;BME280;32506;52.826;-1.192;2022-10-23T13:23:49;99210.75;;;27.37;49.67
46756;BME280;32506;52.826;-1.192;2022-10-23T13:26:37;99209.91;;;26.81;49.37
46756;BME280;32506;52.826;-1.192;2022-10-23T13:31:46;99206.25;;;25.85;51.04
46756;BME280;32506;52.826;-1.192;2022-10-23T13:34:26;99215.97;;;25.41;51.67
46756;BME280;32506;52.826;-1.192;2022-10-23T13:36:53;99212.03;;;25.02;52.30
46756;BME280;32506;52.826;-1.192;2022-10-23T13:39:30;99216.81;;;24.68;53.19
46756;BME280;32506;52.826;-1.192;2022-10-23T13:42:20;99207.53;;;24.35;52.92
46756;BME280;32506;52.826;-1.192;2022-10-23T13:44:45;99201.09;;;24.06;53.42
46756;BME280;32506;52.826;-1.192;2022-10-23T13:47:12;99195.69;;;23.85;53.51
46756;BME280;32506;52.826;-1.192;2022-10-23T13:49:37;99196.09;;;23.75;53.88
46756;BME280;32506;52.826;-1.192;2022-10-23T13:52:03;99186.31;;;23.74;53.68
46756;BME280;32506;52.826;-1.192;2022-10-23T13:54:29;99171.13;;;24.19;53.01
46756;BME280;32506;52.826;-1.192;2022-10-23T13:56:55;99179.72;;;24.91;52.15
46756;BME280;32506;52.826;-1.192;2022-10-23T13:59:21;99168.34;;;25.71;50.66
46756;BME280;32506;52.826;-1.192;2022-10-23T14:01:48;99157.06;;;26.33;50.20
46756;BME280;32506;52.826;-1.192;2022-10-23T14:04:15;99148.03;;;26.80;48.39
46756;BME280;32506;52.826;-1.192;2022-10-23T14:06:41;99142.41;;;27.28;48.49
46756;BME280;32506;52.826;-1.192;2022-10-23T14:09:11;99147.19;;;27.51;47.95
46756;BME280;32506;52.826;-1.192;2022-10-23T14:11:37;99150.06;;;27.58;47.29
46756;BME280;32506;52.826;-1.192;2022-10-23T14:14:03;99143.41;;;27.78;46.60
46756;BME280;32506;52.826;-1.192;2022-10-23T14:16:29;99147.47;;;28.08;46.32
46756;BME280;32506;52.826;-1.192;2022-10-23T14:18:54;99142.84;;;28.35;46.00
46756;BME280;32506;52.826;-1.192;2022-10-23T14:21:21;99136.44;;;28.54;45.57
46756;BME280;32506;52.826;-1.192;2022-10-23T14:23:48;99144.41;;;28.63;45.32
46756;BME280;32506;52.826;-1.192;2022-10-23T14:26:16;99134.97;;;28.60;45.81
46756;BME280;32506;52.826;-1.192;2022-10-23T14:28:43;99134.69;;;28.42;46.09
46756;BME280;32506;52.826;-1.192;2022-10-23T14:31:16;99132.72;;;28.16;46.62
46756;BME280;32506;52.826;-1.192;2022-10-23T14:33:43;99124.06;;;27.94;47.33
46756;BME280;32506;52.826;-1.192;2022-10-23T14:36:10;99119.50;;;27.79;47.54
46756;BME280;32506;52.826;-1.192;2022-10-23T14:38:36;99119.59;;;27.63;48.07
46756;BME280;32506;52.826;-1.192;2022-10-23T14:41:08;99120.78;;;27.42;48.19
46756;BME280;32506;52.826;-1.192;2022-10-23T14:43:33;99116.69;;;27.17;47.48
46756;BME280;32506;52.826;-1.192;2022-10-23T14:46:10;99107.44;;;26.86;48.34
46756;BME280;32506;52.826;-1.192;2022-10-23T14:48:35;99095.47;;;26.58;48.40
46756;BME280;32506;52.826;-1.192;2022-10-23T14:51:04;99098.06;;;26.35;48.24
46756;BME280;32506;52.826;-1.192;2022-10-23T14:53:31;99098.34;;;26.14;47.93